createdAt,value
2022-08-19T00:00:28.166Z,0.081200004
2022-08-19T00:02:24.973Z,0.081200004
2022-08-19T00:03:26.741Z,0.113680005
2022-08-19T00:04:22.714Z,0.162400007
2022-08-19T00:05:26.438Z,0.064960003
2022-08-19T00:07:26.391Z,0.00812
2022-08-19T00:08:26.961Z,0.089320004
2022-08-19T00:09:22.857Z,0.048720002
2022-08-19T00:10:22.814Z,0.121800005
2022-08-19T00:12:29.964Z,0.113680005
2022-08-19T00:13:25.932Z,0.024360001
2022-08-19T00:14:27.750Z,0.162400007
2022-08-19T00:15:23.247Z,0.081200004
2022-08-19T00:16:26.585Z,0.024360001
2022-08-19T00:17:21.735Z,0.064960003
2022-08-19T00:18:22.151Z,0.00812
2022-08-19T00:19:17.509Z,0.162400007
2022-08-19T00:20:17.067Z,0.105560005
2022-08-19T00:22:12.875Z,0.032480001
2022-08-19T00:23:09.105Z,0.024360001
2022-08-19T00:24:11.992Z,0.097440004
2022-08-19T00:25:05.393Z,0.073080003
2022-08-19T00:27:25.604Z,0.113680005
2022-08-19T00:27:26.098Z,0.113680005
2022-08-19T00:27:26.206Z,0.113680005
2022-08-19T00:28:18.053Z,0.056840003
2022-08-19T00:29:13.481Z,0.048720002
2022-08-19T00:30:15.897Z,0.089320004
2022-08-19T00:32:24.295Z,0.105560005
2022-08-19T00:33:22.689Z,0.064960003
2022-08-19T00:34:19.151Z,0.056840003
2022-08-19T00:36:46.210Z,0.121800005
2022-08-19T00:37:46.610Z,0.064960003
2022-08-19T00:38:50.543Z,0.105560005
2022-08-19T00:39:49.156Z,0.097440004
2022-08-19T00:41:52.741Z,0.121800005
2022-08-19T00:42:53.324Z,0.073080003
2022-08-19T00:43:47.887Z,0.113680005
2022-08-19T00:44:47.122Z,0.073080003
2022-08-19T00:46:44.522Z,0.056840003
2022-08-19T00:47:39.365Z,0.129920006
2022-08-19T00:48:41.157Z,0.121800005
2022-08-19T00:49:33.245Z,0.121800005
2022-08-19T00:50:51.953Z,0.089320004
2022-08-19T00:50:52.094Z,0.089320004
2022-08-19T00:52:38.907Z,0.170520008
2022-08-19T00:53:40.745Z,0.121800005
2022-08-19T00:54:39.865Z,0.121800005
2022-08-19T00:56:52.210Z,0.113680005
2022-08-19T00:57:52.726Z,0.105560005
2022-08-19T00:58:47.126Z,0.089320004
2022-08-19T00:59:58.739Z,0.121800005
2022-08-19T01:00:01.079Z,0.121800005
2022-08-19T01:00:02.671Z,0.121800005
2022-08-19T01:00:48.499Z,0.040600002
2022-08-19T01:01:43.814Z,0.040600002
2022-08-19T01:02:46.983Z,0.056840003
2022-08-19T01:03:57.127Z,0.056840003
2022-08-19T01:03:58.098Z,0.056840003
2022-08-19T01:03:58.185Z,0.056840003
2022-08-19T01:04:44.834Z,0.081200004
2022-08-19T01:05:39.565Z,0.024360001
2022-08-19T01:07:38.495Z,0.056840003
2022-08-19T01:08:44.071Z,0.162400007
2022-08-19T01:09:39.253Z,0.024360001
2022-08-19T01:10:38.881Z,0.105560005
2022-08-19T01:11:38.993Z,0.064960003
2022-08-19T01:12:40.641Z,0.089320004
2022-08-19T01:13:48.993Z,0.138040006
2022-08-19T01:13:48.993Z,0.138040006
2022-08-19T01:13:49.830Z,0.138040006
2022-08-19T01:16:57.996Z,0.056840003
2022-08-19T01:18:01.264Z,0.089320004
2022-08-19T01:19:04.925Z,0.121800005
2022-08-19T01:20:02.137Z,0.073080003
2022-08-19T01:21:04.103Z,0.064960003
2022-08-19T01:21:56.660Z,0.089320004
2022-08-19T01:22:57.985Z,0.121800005
2022-08-19T01:24:00.935Z,0.064960003
2022-08-19T01:25:02.121Z,0.121800005
2022-08-19T01:26:59.400Z,0.097440004
2022-08-19T01:28:02.131Z,0.105560005
2022-08-19T01:28:11.171Z,0.105560005
2022-08-19T01:28:11.189Z,0.105560005
2022-08-19T01:28:59.680Z,0.073080003
2022-08-19T01:29:58.711Z,0.162400007
2022-08-19T01:31:55.239Z,0.089320004
2022-08-19T01:32:50.616Z,0.138040006
2022-08-19T01:33:54.867Z,0.064960003
2022-08-19T01:34:56.702Z,0.073080003
2022-08-19T01:36:03.350Z,0.040600002
2022-08-19T01:37:01.211Z,0.097440004
2022-08-19T01:38:01.892Z,0.089320004
2022-08-19T01:39:04.497Z,0.121800005
2022-08-19T01:40:09.418Z,0.121800005
2022-08-19T01:42:00.078Z,0.121800005
2022-08-19T01:42:55.693Z,0.154280007
2022-08-19T01:44:09.852Z,0.016240001
2022-08-19T01:44:13.280Z,0.016240001
2022-08-19T01:44:54.901Z,0.056840003
2022-08-19T01:46:49.440Z,0.032480001
2022-08-19T01:47:55.324Z,0.048720002
2022-08-19T01:48:01.277Z,0.048720002
2022-08-19T01:48:01.512Z,0.048720002
2022-08-19T01:48:47.627Z,0.105560005
2022-08-19T01:49:44.010Z,0.056840003
2022-08-19T01:50:41.968Z,0.081200004
2022-08-19T01:52:37.920Z,0.129920006
2022-08-19T01:53:40.385Z,0.105560005
2022-08-19T01:54:32.948Z,0.105560005
2022-08-19T01:55:34.944Z,0.081200004
2022-08-19T01:56:29.863Z,0.097440004
2022-08-19T01:57:34.573Z,0.064960003
2022-08-19T02:00:00.892Z,0.056840003
2022-08-19T02:02:05.393Z,0.129920006
2022-08-19T02:03:04.352Z,0.129920006
2022-08-19T02:04:02.742Z,0.129920006
2022-08-19T02:05:03.742Z,0.121800005
2022-08-19T02:06:58.773Z,0.138040006
2022-08-19T02:07:59.051Z,0.081200004
2022-08-19T02:08:58.211Z,0.064960003
2022-08-19T02:10:00.218Z,0.056840003
2022-08-19T02:10:58.362Z,0.097440004
2022-08-19T02:11:53.589Z,0.048720002
2022-08-19T02:12:57.899Z,0.146160007
2022-08-19T02:13:55.826Z,0.048720002
2022-08-19T02:14:55.602Z,0.097440004
2022-08-19T02:15:51.867Z,0.081200004
2022-08-19T02:16:54.406Z,0.073080003
2022-08-19T02:17:49.631Z,0.073080003
2022-08-19T02:18:49.883Z,0.064960003
2022-08-19T02:19:46.339Z,0.113680005
2022-08-19T02:20:50.126Z,0.138040006
2022-08-19T02:21:44.357Z,0.048720002
2022-08-19T02:22:41.974Z,0.089320004
2022-08-19T02:23:45.412Z,0.121800005
2022-08-19T02:24:40.551Z,0.097440004
2022-08-19T02:25:45.421Z,0.081200004
2022-08-19T02:27:47.457Z,0.097440004
2022-08-19T02:28:46.533Z,0.073080003
2022-08-19T02:29:44.886Z,0.073080003
2022-08-19T02:30:49.238Z,0.048720002
2022-08-19T02:31:41.694Z,0.089320004
2022-08-19T02:32:48.697Z,0.056840003
2022-08-19T02:33:41.252Z,0.113680005
2022-08-19T02:36:58.756Z,0.073080003
2022-08-19T02:37:59.297Z,0.097440004
2022-08-19T02:39:03.486Z,0.064960003
2022-08-19T02:40:12.388Z,0.097440004
2022-08-19T02:40:12.676Z,0.097440004
2022-08-19T02:41:04.614Z,0.024360001
2022-08-19T02:42:07.306Z,0.162400007
2022-08-19T02:43:09.788Z,0.097440004
2022-08-19T02:44:29.050Z,0.089320004
2022-08-19T02:44:30.529Z,0.089320004
2022-08-19T02:44:30.561Z,0.089320004
2022-08-19T02:45:40.514Z,0.113680005
2022-08-19T02:46:36.090Z,0.105560005
2022-08-19T02:47:40.243Z,0.040600002
2022-08-19T02:48:35.632Z,0.073080003
2022-08-19T02:49:36.725Z,0.064960003
2022-08-19T02:50:34.889Z,0.00812
2022-08-19T02:51:38.628Z,0.016240001
2022-08-19T02:52:32.945Z,0.129920006
2022-08-19T02:53:31.953Z,0.056840003
2022-08-19T02:54:30.326Z,0.129920006
2022-08-19T02:55:31.725Z,0.089320004
2022-08-19T02:55:46.171Z,0.089320004
2022-08-19T02:55:46.315Z,0.089320004
2022-08-19T02:56:35.260Z,0.081200004
2022-08-19T02:57:29.952Z,0.154280007
2022-08-19T02:58:33.904Z,0.113680005
2022-08-19T02:59:28.176Z,0.138040006
2022-08-19T03:00:30.337Z,0.032480001
2022-08-19T03:01:23.111Z,0.113680005
2022-08-19T03:02:32.371Z,0.073080003
2022-08-19T03:03:27.559Z,0.081200004
2022-08-19T03:04:33.432Z,0.129920006
2022-08-19T03:05:46.854Z,0.121800005
2022-08-19T03:05:48.101Z,0.121800005
2022-08-19T03:05:48.382Z,0.121800005
2022-08-19T03:06:32.428Z,0.105560005
2022-08-19T03:07:29.991Z,0.105560005
2022-08-19T03:08:32.689Z,0.203000009
2022-08-19T03:09:28.752Z,0.097440004
2022-08-19T03:10:31.738Z,0.073080003
2022-08-19T03:12:27.493Z,0.138040006
2022-08-19T03:13:25.516Z,0.129920006
2022-08-19T03:14:25.739Z,0.00812
2022-08-19T03:15:21.044Z,0.146160007
2022-08-19T03:18:08.794Z,0.089320004
2022-08-19T03:19:06.570Z,0.048720002
2022-08-19T03:20:08.263Z,0
2022-08-19T03:22:02.885Z,0.081200004
2022-08-19T03:22:59.464Z,0
2022-08-19T03:23:59.812Z,0.040600002
2022-08-19T03:25:06.479Z,0.105560005
2022-08-19T03:27:08.152Z,0.016240001
2022-08-19T03:28:06.206Z,0.097440004
2022-08-19T03:29:02.522Z,0.064960003
2022-08-19T03:30:03.214Z,0.056840003
2022-08-19T03:30:59.858Z,0.073080003
2022-08-19T03:32:00.644Z,0.146160007
2022-08-19T03:32:57.348Z,0.081200004
2022-08-19T03:33:54.971Z,0.097440004
2022-08-19T03:34:49.417Z,0.113680005
2022-08-19T03:35:48.797Z,0.073080003
2022-08-19T03:37:52.893Z,0.056840003
2022-08-19T03:38:47.007Z,0.113680005
2022-08-19T03:40:48.883Z,0.089320004
2022-08-19T03:41:48.784Z,0.064960003
2022-08-19T03:42:49.553Z,0.105560005
2022-08-19T03:43:45.802Z,0.064960003
2022-08-19T03:44:44.675Z,0.00812
2022-08-19T03:45:39.933Z,0.081200004
2022-08-19T03:47:40.394Z,0.105560005
2022-08-19T03:48:32.970Z,0.097440004
2022-08-19T03:49:33.639Z,0.032480001
2022-08-19T03:50:30.342Z,0.081200004
2022-08-19T03:51:31.711Z,0.081200004
2022-08-19T03:52:26.924Z,0.081200004
2022-08-19T03:53:25.526Z,0.097440004
2022-08-19T03:54:24.474Z,-0.016240001
2022-08-19T03:55:20.006Z,0.081200004
2022-08-19T04:00:13.529Z,0.073080003
2022-08-19T04:00:13.805Z,0.073080003
2022-08-19T04:01:07.479Z,0.064960003
2022-08-19T04:02:04.706Z,0.024360001
2022-08-19T04:03:12.460Z,0.056840003
2022-08-19T04:04:07.853Z,0.024360001
2022-08-19T04:05:08.535Z,0.073080003
2022-08-19T04:07:06.930Z,0.064960003
2022-08-19T04:08:13.777Z,0.113680005
2022-08-19T04:09:09.881Z,0.097440004
2022-08-19T04:10:05.026Z,0.097440004
2022-08-19T04:11:04.345Z,0.089320004
2022-08-19T04:12:00.696Z,0.129920006
2022-08-19T04:13:06.637Z,0.056840003
2022-08-19T04:14:04.800Z,0.162400007
2022-08-19T04:15:09.919Z,0.081200004
2022-08-19T04:16:02.877Z,0.105560005
2022-08-19T04:17:00.802Z,0.129920006
2022-08-19T04:18:00.269Z,0.089320004
2022-08-19T04:18:56.889Z,0.089320004
2022-08-19T04:19:59.847Z,0.089320004
2022-08-19T04:20:52.645Z,0.081200004
2022-08-19T04:21:54.365Z,0.178640008
2022-08-19T04:22:46.791Z,0.056840003
2022-08-19T04:23:45.942Z,0.089320004
2022-08-19T04:24:45.485Z,0.170520008
2022-08-19T04:25:45.756Z,0.121800005
2022-08-19T04:27:42.388Z,0.105560005
2022-08-19T04:28:45.300Z,0.097440004
2022-08-19T04:29:38.803Z,0.048720002
2022-08-19T04:30:41.185Z,0.064960003
2022-08-19T04:33:04.433Z,0.178640008
2022-08-19T04:34:01.450Z,0.064960003
2022-08-19T04:35:16.787Z,0.032480001
2022-08-19T04:35:16.823Z,0.032480001
2022-08-19T04:35:17.527Z,0.032480001
2022-08-19T04:36:00.332Z,0.073080003
2022-08-19T04:38:00.333Z,0.129920006
2022-08-19T04:38:56.677Z,0.105560005
2022-08-19T04:39:58.713Z,0.089320004
2022-08-19T04:40:02.421Z,0.089320004
2022-08-19T04:40:56.611Z,0.138040006
2022-08-19T04:42:52.256Z,0.162400007
2022-08-19T04:43:47.261Z,0.211120009
2022-08-19T04:44:49.036Z,0.105560005
2022-08-19T04:45:44.184Z,0.146160007
2022-08-19T04:46:51.152Z,0.129920006
2022-08-19T04:46:51.481Z,0.129920006
2022-08-19T04:47:48.230Z,0.113680005
2022-08-19T04:47:58.292Z,0.113680005
2022-08-19T04:47:58.754Z,0.113680005
2022-08-19T04:48:49.199Z,0.081200004
2022-08-19T04:48:49.405Z,0.081200004
2022-08-19T04:48:49.732Z,0.081200004
2022-08-19T04:49:39.963Z,0.016240001
2022-08-19T04:50:34.441Z,0.154280007
2022-08-19T04:51:36.353Z,0.186760008
2022-08-19T04:52:31.212Z,0.154280007
2022-08-19T04:53:34.675Z,0.154280007
2022-08-19T04:53:38.034Z,0.154280007
2022-08-19T04:54:37.687Z,0.22736001
2022-08-19T04:54:39.387Z,0.22736001
2022-08-19T04:55:27.723Z,0.186760008
2022-08-19T04:56:22.941Z,0.064960003
2022-08-19T04:57:26.145Z,0.162400007
2022-08-19T04:58:18.674Z,0.138040006
2022-08-19T04:59:18.706Z,0.22736001
2022-08-19T05:00:14.013Z,0.129920006
2022-08-19T05:02:08.675Z,0.113680005
2022-08-19T05:03:07.733Z,0.251720011
2022-08-19T05:04:02.411Z,0.259840012
2022-08-19T05:05:02.131Z,0.146160007
2022-08-19T05:05:57.349Z,0.203000009
2022-08-19T05:07:52.954Z,0.243600011
2022-08-19T05:08:55.250Z,0.186760008
2022-08-19T05:09:57.984Z,0.267960012
2022-08-19T05:09:58.621Z,0.267960012
2022-08-19T05:09:59.210Z,0.267960012
2022-08-19T05:12:36.149Z,0.251720011
2022-08-19T05:13:35.291Z,0.259840012
2022-08-19T05:14:36.828Z,0.21924001
2022-08-19T05:15:36.201Z,0.170520008
2022-08-19T05:16:37.238Z,0.308560014
2022-08-19T05:17:38.342Z,0.259840012
2022-08-19T05:17:39.369Z,0.259840012
2022-08-19T05:18:34.958Z,0.235480011
2022-08-19T05:19:33.630Z,0.300440013
2022-08-19T05:20:36.639Z,0.22736001
2022-08-19T05:21:35.323Z,0.21924001
2022-08-19T05:22:40.868Z,0.267960012
2022-08-19T05:23:35.432Z,0.357280016
2022-08-19T05:24:51.424Z,0.267960012
2022-08-19T05:25:09.287Z,0.267960012
2022-08-19T05:25:11.209Z,0.267960012
2022-08-19T05:25:40.790Z,0.357280016
2022-08-19T05:26:37.135Z,0.22736001
2022-08-19T05:27:39.337Z,0.284200013
2022-08-19T05:28:35.697Z,0.194880009
2022-08-19T05:29:36.777Z,0.251720011
2022-08-19T05:30:46.483Z,0.251720011
2022-08-19T05:30:47.172Z,0.251720011
2022-08-19T05:30:47.445Z,0.251720011
2022-08-19T05:31:34.827Z,0.235480011
2022-08-19T05:32:35.371Z,0.316680014
2022-08-19T05:33:32.181Z,0.349160016
2022-08-19T05:34:32.733Z,0.276080012
2022-08-19T05:35:30.055Z,0.308560014
2022-08-19T05:36:33.596Z,0.381640017
2022-08-19T05:37:30.261Z,0.324800014
2022-08-19T05:38:33.752Z,0.406000018
2022-08-19T05:39:27.975Z,0.381640017
2022-08-19T05:40:30.211Z,0.365400016
2022-08-19T05:41:27.913Z,0.324800014
2022-08-19T05:42:32.671Z,0.300440013
2022-08-19T05:43:29.407Z,0.251720011
2022-08-19T05:44:33.514Z,0.324800014
2022-08-19T05:45:29.974Z,0.292320013
2022-08-19T05:47:27.704Z,0.487200022
2022-08-19T05:48:31.541Z,0.292320013
2022-08-19T05:49:35.326Z,0.381640017
2022-08-19T05:50:29.723Z,0.422240019
2022-08-19T05:51:33.348Z,0.316680014
2022-08-19T05:52:27.793Z,0.495320022
2022-08-19T05:53:33.558Z,0.397880018
2022-08-19T05:54:29.223Z,0.308560014
2022-08-19T05:55:33.262Z,0.422240019
2022-08-19T05:57:35.029Z,0.45472002
2022-08-19T05:59:59.350Z,0.495320022
2022-08-19T06:00:57.470Z,0.519680023
2022-08-19T06:02:53.055Z,0.617120028
2022-08-19T06:03:52.982Z,0.779520035
2022-08-19T06:04:48.379Z,0.617120028
2022-08-19T06:05:52.123Z,0.470960021
2022-08-19T06:07:43.237Z,0.633360028
2022-08-19T06:08:38.030Z,0.820120037
2022-08-19T06:09:37.656Z,0.414120018
2022-08-19T06:10:32.987Z,0.625240028
2022-08-19T06:12:27.345Z,0.738920033
2022-08-19T06:13:29.033Z,0.66584003
2022-08-19T06:14:27.790Z,0.609000027
2022-08-19T06:15:25.694Z,0.633360028
2022-08-19T06:16:25.039Z,0.67396003
2022-08-19T06:17:21.802Z,0.698320031
2022-08-19T06:18:23.913Z,0.714560032
2022-08-19T06:19:16.565Z,0.747040033
2022-08-19T06:20:15.887Z,0.803880036
2022-08-19T06:22:11.781Z,0.690200031
2022-08-19T06:23:06.545Z,0.803880036
2022-08-19T06:24:08.788Z,1.006880045
2022-08-19T06:25:01.025Z,1.096199989
2022-08-19T06:26:03.297Z,0.828240037
2022-08-19T06:28:14.629Z,0.755160034
2022-08-19T06:28:15.135Z,0.755160034
2022-08-19T06:28:16.111Z,0.755160034
2022-08-19T06:28:57.000Z,0.795760036
2022-08-19T06:29:51.354Z,0.722680032
2022-08-19T06:30:52.917Z,0.812000036
2022-08-19T06:32:47.858Z,0.803880036
2022-08-19T06:33:43.237Z,0.795760036
2022-08-19T06:34:45.901Z,0.941920042
2022-08-19T06:35:40.244Z,0.876960039
2022-08-19T06:37:14.163Z,0.747040033
2022-08-19T06:39:32.377Z,0.67396003
2022-08-19T06:40:28.941Z,0.747040033
2022-08-19T06:41:29.481Z,0.803880036
2022-08-19T06:42:25.717Z,0.690200031
2022-08-19T06:43:28.144Z,0.990640044
2022-08-19T06:44:20.147Z,0.738920033
2022-08-19T06:45:19.179Z,0.860720038
2022-08-19T06:45:24.925Z,0.860720038
2022-08-19T06:45:35.472Z,0.860720038
2022-08-19T06:47:14.735Z,0.820120037
2022-08-19T06:47:23.732Z,0.820120037
2022-08-19T06:47:28.459Z,0.820120037
2022-08-19T06:48:13.262Z,0.982520044
2022-08-19T06:49:08.051Z,0.89320004
2022-08-19T06:50:07.450Z,0.803880036
2022-08-19T06:51:02.615Z,0.998760045
2022-08-19T06:51:08.740Z,0.998760045
2022-08-19T06:52:01.978Z,0.876960039
2022-08-19T06:52:57.257Z,1.047480106
2022-08-19T06:53:55.903Z,1.209880114
2022-08-19T06:54:56.341Z,1.453480005
2022-08-19T06:54:56.590Z,1.453480005
2022-08-19T06:55:50.177Z,1.445360065
2022-08-19T06:57:44.045Z,1.583400011
2022-08-19T06:58:39.307Z,1.266720057
2022-08-19T06:59:40.902Z,1.372280121
2022-08-19T07:00:33.534Z,1.453480005
2022-08-19T07:02:27.032Z,1.404760122
2022-08-19T07:03:28.907Z,1.729560137
2022-08-19T07:04:26.570Z,1.680840015
2022-08-19T07:05:18.621Z,1.591520071
2022-08-19T07:07:19.859Z,1.469720125
2022-08-19T07:07:20.014Z,1.469720125
2022-08-19T07:08:11.211Z,1.624000072
2022-08-19T07:09:10.628Z,1.429120064
2022-08-19T07:10:07.366Z,1.940680027
2022-08-19T07:11:09.258Z,1.680840015
2022-08-19T07:11:10.799Z,1.680840015
2022-08-19T07:12:58.742Z,1.818880081
2022-08-19T07:14:00.697Z,1.510320067
2022-08-19T07:14:53.028Z,1.753920078
2022-08-19T07:15:52.495Z,1.607760072
2022-08-19T07:17:50.131Z,1.705200076
2022-08-19T07:18:46.987Z,1.299200058
2022-08-19T07:19:39.639Z,1.770160079
2022-08-19T07:20:41.913Z,2.192399979
2022-08-19T07:21:34.225Z,2.411640167
2022-08-19T07:22:33.858Z,2.639000177
2022-08-19T07:23:30.045Z,2.289840221
2022-08-19T07:24:26.549Z,2.777040005
2022-08-19T07:25:32.058Z,2.533440113
2022-08-19T07:25:32.174Z,2.533440113
2022-08-19T07:26:27.804Z,2.289840221
2022-08-19T07:26:28.025Z,2.289840221
2022-08-19T07:27:25.453Z,2.825760126
2022-08-19T07:28:24.264Z,3.045000076
2022-08-19T07:28:24.813Z,3.045000076
2022-08-19T07:29:17.725Z,2.297960043
2022-08-19T07:30:13.623Z,2.768920183
2022-08-19T07:31:15.316Z,2.574040174
2022-08-19T07:32:11.659Z,2.639000177
2022-08-19T07:32:13.661Z,2.639000177
2022-08-19T07:33:11.225Z,2.297960043
2022-08-19T07:34:03.654Z,2.541560173
2022-08-19T07:35:07.560Z,2.419760227
2022-08-19T07:36:00.093Z,2.858240128
2022-08-19T07:37:55.712Z,2.265480042
2022-08-19T07:38:54.908Z,1.948800087
2022-08-19T07:39:50.354Z,2.346680164
2022-08-19T07:40:52.302Z,2.257359982
2022-08-19T07:43:34.944Z,3.321080208
2022-08-19T07:43:35.032Z,3.321080208
2022-08-19T07:45:51.265Z,2.346680164
2022-08-19T07:46:49.272Z,1.932560086
2022-08-19T07:47:51.256Z,2.419760227
2022-08-19T07:48:42.664Z,2.622760057
2022-08-19T07:49:41.670Z,2.289840221
2022-08-19T07:50:36.871Z,2.500960112
2022-08-19T07:51:36.704Z,2.419760227
2022-08-19T07:52:29.593Z,2.582159996
2022-08-19T07:53:28.702Z,2.436000109
2022-08-19T07:54:23.983Z,2.69584012
2022-08-19T07:55:42.171Z,2.671480179
2022-08-19T07:55:42.549Z,2.671480179
2022-08-19T07:56:20.392Z,2.752680063
2022-08-19T07:57:15.430Z,2.971920013
2022-08-19T07:58:14.603Z,2.825760126
2022-08-19T07:59:12.191Z,2.93944025
2022-08-19T08:00:06.314Z,2.395400047
2022-08-19T08:01:05.348Z,2.639000177
2022-08-19T08:03:01.681Z,2.760800123
2022-08-19T08:03:54.043Z,2.200520039
2022-08-19T08:04:53.198Z,2.403520107
2022-08-19T08:05:47.579Z,2.24924016
2022-08-19T08:06:44.273Z,2.2411201
2022-08-19T08:07:46.202Z,2.590280056
2022-08-19T08:08:37.285Z,3.126200199
2022-08-19T08:08:44.370Z,3.126200199
2022-08-19T08:08:48.255Z,3.126200199
2022-08-19T08:09:39.471Z,2.801400185
2022-08-19T08:10:31.288Z,2.882600069
2022-08-19T08:12:34.180Z,2.898840189
2022-08-19T08:12:34.599Z,2.898840189
2022-08-19T08:13:25.442Z,3.434760094
2022-08-19T08:14:29.030Z,3.775800228
2022-08-19T08:14:29.247Z,3.775800228
2022-08-19T08:14:35.074Z,3.775800228
2022-08-19T08:15:20.066Z,3.483480215
2022-08-19T08:15:25.207Z,3.483480215
2022-08-19T08:16:17.714Z,3.962560177
2022-08-19T08:17:13.184Z,4.417280197
2022-08-19T08:18:12.138Z,5.269880295
2022-08-19T08:19:12.643Z,5.407920361
2022-08-19T08:19:18.222Z,5.407920361
2022-08-19T08:20:05.431Z,5.253640175
2022-08-19T08:21:07.787Z,5.196800232
2022-08-19T08:23:02.874Z,5.757080078
2022-08-19T08:23:56.185Z,5.797680378
2022-08-19T08:24:55.684Z,5.708360195
2022-08-19T08:25:50.957Z,6.130600452
2022-08-19T08:26:52.182Z,5.521600246
2022-08-19T08:26:57.071Z,5.521600246
2022-08-19T08:27:48.747Z,6.455400467
2022-08-19T08:27:53.854Z,6.455400467
2022-08-19T08:28:48.031Z,6.634040356
2022-08-19T08:29:42.157Z,5.830160141
2022-08-19T08:30:41.192Z,5.099360466
2022-08-19T08:31:43.000Z,5.870760441
2022-08-19T08:32:35.860Z,6.699000359
2022-08-19T08:33:35.227Z,5.911360264
2022-08-19T08:34:33.842Z,5.399800301
2022-08-19T08:35:29.307Z,5.748960495
2022-08-19T08:37:24.663Z,5.984440327
2022-08-19T08:38:24.801Z,5.748960495
2022-08-19T08:40:11.282Z,6.658400536
2022-08-19T08:40:13.320Z,6.658400536
2022-08-19T08:41:35.208Z,-0.089320004
2022-08-19T08:42:17.635Z,5.091240406
2022-08-19T08:43:12.441Z,4.352320194
2022-08-19T08:44:17.276Z,4.165560246
2022-08-19T08:44:17.399Z,4.165560246
2022-08-19T08:45:08.271Z,4.620280266
2022-08-19T08:46:07.497Z,4.206160069
2022-08-19T08:48:01.189Z,4.368560314
2022-08-19T08:48:55.887Z,4.660880089
2022-08-19T08:49:55.437Z,4.660880089
2022-08-19T08:50:50.808Z,4.539080143
2022-08-19T08:52:44.445Z,4.425400257
2022-08-19T08:53:44.162Z,4.872000217
2022-08-19T08:54:39.493Z,4.01128006
2022-08-19T08:55:38.380Z,5.310480118
2022-08-19T08:57:36.931Z,5.399800301
2022-08-19T08:57:41.095Z,5.399800301
2022-08-19T08:58:32.926Z,5.269880295
2022-08-19T08:59:25.406Z,5.911360264
2022-08-19T09:00:25.193Z,5.269880295
2022-08-19T09:01:20.494Z,5.757080078
2022-08-19T09:02:19.901Z,5.294239998
2022-08-19T09:03:14.989Z,5.554080009
2022-08-19T09:04:17.516Z,5.951960087
2022-08-19T09:05:09.974Z,5.554080009
2022-08-19T09:05:16.423Z,5.554080009
2022-08-19T09:06:11.858Z,5.708360195
2022-08-19T09:08:07.574Z,4.555320263
2022-08-19T09:08:59.798Z,4.198040009
2022-08-19T09:10:02.103Z,4.823280334
2022-08-19T09:10:55.174Z,4.384799957
2022-08-19T09:11:53.961Z,3.80016017
2022-08-19T09:12:49.220Z,4.230520248
2022-08-19T09:13:45.845Z,3.897600174
2022-08-19T09:14:51.761Z,4.0437603
2022-08-19T09:14:52.644Z,4.0437603
2022-08-19T09:15:42.045Z,4.327960014
2022-08-19T09:17:36.548Z,3.930080175
2022-08-19T09:18:35.810Z,3.386040211
2022-08-19T09:19:33.032Z,3.118080139
2022-08-19T09:20:28.230Z,3.288600206
2022-08-19T09:22:25.570Z,3.264240265
2022-08-19T09:22:27.330Z,3.264240265
2022-08-19T09:23:26.966Z,3.134320259
2022-08-19T09:23:27.032Z,3.134320259
2022-08-19T09:24:32.789Z,3.467240095
2022-08-19T09:25:29.489Z,3.613400221
2022-08-19T09:26:48.614Z,3.410400152
2022-08-19T09:26:52.378Z,3.410400152
2022-08-19T09:26:52.587Z,3.410400152
2022-08-19T09:27:22.484Z,3.199280262
2022-08-19T09:27:42.264Z,3.199280262
2022-08-19T09:27:42.295Z,3.199280262
2022-08-19T09:28:26.900Z,3.589040279
2022-08-19T09:29:17.725Z,3.629640102
2022-08-19T09:30:14.966Z,3.783920288
2022-08-19T09:31:14.363Z,4.00316
2022-08-19T09:33:08.979Z,4.327960014
2022-08-19T09:34:04.410Z,4.94508028
2022-08-19T09:35:03.826Z,4.766440392
2022-08-19T09:35:08.952Z,4.766440392
2022-08-19T09:36:01.900Z,5.635280132
2022-08-19T09:36:08.418Z,5.635280132
2022-08-19T09:37:47.084Z,0.267960012
2022-08-19T09:38:26.799Z,5.635280132
2022-08-19T09:39:24.702Z,4.376680374
2022-08-19T09:40:22.797Z,4.287360191
2022-08-19T09:41:22.567Z,3.321080208
2022-08-19T09:42:29.870Z,3.321080208
2022-08-19T09:42:30.120Z,3.321080208
2022-08-19T09:43:27.793Z,3.938200235
2022-08-19T09:43:32.993Z,3.938200235
2022-08-19T09:43:33.229Z,3.938200235
2022-08-19T09:44:18.118Z,4.669000149
2022-08-19T09:45:13.046Z,4.604040146
2022-08-19T09:46:15.756Z,4.189920425
2022-08-19T09:48:09.815Z,4.636520386
2022-08-19T09:49:06.246Z,4.798920155
2022-08-19T09:50:05.906Z,4.766440392
2022-08-19T09:51:01.243Z,3.645880222
2022-08-19T09:52:01.302Z,3.80016017
2022-08-19T09:52:57.862Z,4.084360123
2022-08-19T09:53:56.746Z,4.49036026
2022-08-19T09:54:52.143Z,4.392920017
2022-08-19T09:55:52.481Z,4.401040077
2022-08-19T09:57:48.420Z,4.685240269
2022-08-19T09:58:44.552Z,4.993800163
2022-08-19T09:59:41.856Z,4.90447998
2022-08-19T10:00:41.974Z,4.977560043
2022-08-19T10:02:37.820Z,5.107480049
2022-08-19T10:03:33.396Z,5.237400055
2022-08-19T10:04:31.264Z,4.733960152
2022-08-19T10:05:31.546Z,4.620280266
2022-08-19T10:06:40.660Z,4.94508028
2022-08-19T10:06:45.822Z,4.94508028
2022-08-19T10:06:46.518Z,4.94508028
2022-08-19T10:07:36.365Z,4.709600449
2022-08-19T10:07:36.488Z,4.709600449
2022-08-19T10:08:27.395Z,4.376680374
2022-08-19T10:09:34.042Z,4.595920086
2022-08-19T10:09:34.525Z,4.595920086
2022-08-19T10:10:21.332Z,4.271120071
2022-08-19T10:11:28.709Z,3.142440081
2022-08-19T10:11:28.747Z,3.142440081
2022-08-19T10:11:39.482Z,3.142440081
2022-08-19T10:13:15.481Z,3.085600138
2022-08-19T10:14:15.181Z,2.362920046
2022-08-19T10:15:10.427Z,3.499720097
2022-08-19T10:16:08.349Z,3.857000113
2022-08-19T10:17:19.125Z,3.986920118
2022-08-19T10:17:19.246Z,3.986920118
2022-08-19T10:17:21.406Z,3.986920118
2022-08-19T10:18:07.455Z,4.425400257
2022-08-19T10:19:03.683Z,3.889480114
2022-08-19T10:20:03.243Z,3.857000113
2022-08-19T10:21:41.078Z,-0.040600002
2022-08-19T10:22:20.618Z,3.816400051
2022-08-19T10:23:18.364Z,4.100600243
2022-08-19T10:24:18.685Z,3.986920118
2022-08-19T10:25:14.068Z,3.727080107
2022-08-19T10:26:14.239Z,3.865120173
2022-08-19T10:27:09.579Z,3.645880222
2022-08-19T10:28:10.672Z,3.361680031
2022-08-19T10:29:04.992Z,3.166800022
2022-08-19T10:30:04.767Z,3.337320089
2022-08-19T10:30:10.014Z,3.337320089
2022-08-19T10:31:05.455Z,3.410400152
2022-08-19T10:32:56.373Z,3.272360086